createdAt,value
2023-10-07T00:01:26.556Z,99.22
2023-10-07T00:03:54.583Z,99.14
2023-10-07T00:06:29.291Z,99.44
2023-10-07T00:08:59.427Z,99.66
2023-10-07T00:11:28.565Z,99.79
2023-10-07T00:13:56.496Z,99.87
2023-10-07T00:16:25.274Z,99.79
2023-10-07T00:18:52.586Z,100.00
2023-10-07T00:21:28.181Z,100.00
2023-10-07T00:23:55.452Z,100.00
2023-10-07T00:26:22.059Z,100.00
2023-10-07T00:29:00.974Z,100.00
2023-10-07T00:31:29.326Z,100.00
2023-10-07T00:34:07.035Z,100.00
2023-10-07T00:36:33.681Z,100.00
2023-10-07T00:39:01.287Z,100.00
2023-10-07T00:41:37.713Z,100.00
2023-10-07T00:44:19.182Z,100.00
2023-10-07T00:46:56.774Z,100.00
2023-10-07T00:49:24.332Z,100.00
2023-10-07T00:51:53.500Z,100.00
2023-10-07T00:54:26.593Z,100.00
2023-10-07T00:57:08.085Z,100.00
2023-10-07T00:59:36.193Z,100.00
2023-10-07T01:02:07.871Z,100.00
2023-10-07T01:04:41.924Z,100.00
2023-10-07T01:07:14.114Z,100.00
2023-10-07T01:09:41.149Z,100.00
2023-10-07T01:12:09.738Z,100.00
2023-10-07T01:14:36.811Z,100.00
2023-10-07T01:17:04.595Z,100.00
2023-10-07T01:19:37.130Z,100.00
2023-10-07T01:22:11.228Z,100.00
2023-10-07T01:24:38.221Z,100.00
2023-10-07T01:27:19.857Z,100.00
2023-10-07T01:30:01.236Z,100.00
2023-10-07T01:32:33.783Z,100.00
2023-10-07T01:35:07.737Z,100.00
2023-10-07T01:37:43.531Z,100.00
2023-10-07T01:40:17.733Z,100.00
2023-10-07T01:42:45.130Z,100.00
2023-10-07T01:45:21.120Z,100.00
2023-10-07T01:47:49.759Z,100.00
2023-10-07T01:50:19.801Z,100.00
2023-10-07T01:52:49.839Z,100.00
2023-10-07T01:55:17.679Z,100.00
2023-10-07T01:57:46.143Z,100.00
2023-10-07T02:00:13.944Z,100.00
2023-10-07T02:02:50.244Z,100.00
2023-10-07T02:05:22.389Z,100.00
2023-10-07T02:07:50.330Z,100.00
2023-10-07T02:10:24.650Z,100.00
2023-10-07T02:12:54.310Z,100.00
2023-10-07T02:15:21.899Z,100.00
2023-10-07T02:17:49.162Z,100.00
2023-10-07T02:20:39.686Z,100.00
2023-10-07T02:23:14.475Z,100.00
2023-10-07T02:25:41.875Z,100.00
2023-10-07T02:28:09.558Z,100.00
2023-10-07T02:30:40.354Z,100.00
2023-10-07T02:33:09.518Z,100.00
2023-10-07T02:35:38.155Z,100.00
2023-10-07T02:38:05.076Z,100.00
2023-10-07T02:40:37.196Z,100.00
2023-10-07T02:43:08.605Z,100.00
2023-10-07T02:45:44.221Z,100.00
2023-10-07T02:48:12.415Z,100.00
2023-10-07T02:50:41.898Z,100.00
2023-10-07T02:53:15.556Z,100.00
2023-10-07T02:55:56.226Z,100.00
2023-10-07T02:58:41.477Z,100.00
2023-10-07T03:01:15.289Z,100.00
2023-10-07T03:03:49.391Z,100.00
2023-10-07T03:06:18.839Z,100.00
2023-10-07T03:08:47.066Z,100.00
2023-10-07T03:11:22.243Z,100.00
2023-10-07T03:13:51.574Z,100.00
2023-10-07T03:16:25.621Z,100.00
2023-10-07T03:19:02.506Z,100.00
2023-10-07T03:21:45.112Z,100.00
2023-10-07T03:24:13.695Z,100.00
2023-10-07T03:26:42.695Z,100.00
2023-10-07T03:29:09.671Z,100.00
2023-10-07T03:31:48.862Z,100.00
2023-10-07T03:34:15.741Z,100.00
2023-10-07T03:36:46.348Z,100.00
2023-10-07T03:39:16.212Z,100.00
2023-10-07T03:41:42.821Z,100.00
2023-10-07T03:44:09.914Z,100.00
2023-10-07T03:46:37.050Z,100.00
2023-10-07T03:49:07.830Z,100.00
2023-10-07T03:51:36.391Z,100.00
2023-10-07T03:54:05.251Z,100.00
2023-10-07T03:56:32.622Z,100.00
2023-10-07T03:59:01.230Z,100.00
2023-10-07T04:01:28.474Z,100.00
2023-10-07T04:04:00.560Z,100.00
2023-10-07T04:06:35.725Z,100.00
2023-10-07T04:09:08.781Z,100.00
2023-10-07T04:11:37.994Z,100.00
2023-10-07T04:14:28.602Z,100.00
2023-10-07T04:17:01.336Z,100.00
2023-10-07T04:19:28.445Z,100.00
2023-10-07T04:21:56.154Z,100.00
2023-10-07T04:24:30.101Z,100.00
2023-10-07T04:27:04.037Z,100.00
2023-10-07T04:29:32.509Z,100.00
2023-10-07T04:32:07.132Z,100.00
2023-10-07T04:34:37.731Z,100.00
2023-10-07T04:37:04.344Z,100.00
2023-10-07T04:39:39.049Z,100.00
2023-10-07T04:42:07.339Z,100.00
2023-10-07T04:44:40.739Z,100.00
2023-10-07T04:47:23.858Z,100.00
2023-10-07T04:49:56.945Z,100.00
2023-10-07T04:52:28.460Z,100.00
2023-10-07T04:54:57.774Z,100.00
2023-10-07T04:57:45.357Z,100.00
2023-10-07T05:00:32.100Z,100.00
2023-10-07T05:03:09.315Z,100.00
2023-10-07T05:05:36.076Z,100.00
2023-10-07T05:08:18.780Z,100.00
2023-10-07T05:10:53.629Z,100.00
2023-10-07T05:13:20.976Z,100.00
2023-10-07T05:15:47.698Z,100.00
2023-10-07T05:18:18.376Z,100.00
2023-10-07T05:20:48.076Z,100.00
2023-10-07T05:23:16.251Z,100.00
2023-10-07T05:25:51.163Z,100.00
2023-10-07T05:28:28.397Z,100.00
2023-10-07T05:30:55.320Z,100.00
2023-10-07T05:33:29.693Z,100.00
2023-10-07T05:36:00.345Z,100.00
2023-10-07T05:38:26.966Z,100.00
2023-10-07T05:40:53.528Z,100.00
2023-10-07T05:43:20.121Z,100.00
2023-10-07T05:45:46.722Z,100.00
2023-10-07T05:48:13.389Z,100.00
2023-10-07T05:50:40.984Z,100.00
2023-10-07T05:53:07.668Z,100.00
2023-10-07T05:55:35.537Z,100.00
2023-10-07T05:58:03.390Z,100.00
2023-10-07T06:00:37.390Z,100.00
2023-10-07T06:03:07.958Z,100.00
2023-10-07T06:05:36.787Z,100.00
2023-10-07T06:08:05.930Z,100.00
2023-10-07T06:10:34.816Z,100.00
2023-10-07T06:13:09.378Z,100.00
2023-10-07T06:15:38.905Z,100.00
2023-10-07T06:18:06.624Z,100.00
2023-10-07T06:20:40.214Z,100.00
2023-10-07T06:23:15.178Z,100.00
2023-10-07T06:25:44.632Z,100.00
2023-10-07T06:28:11.459Z,100.00
2023-10-07T06:30:39.363Z,100.00
2023-10-07T06:33:06.311Z,100.00
2023-10-07T06:35:34.977Z,100.00
2023-10-07T06:38:04.165Z,100.00
2023-10-07T06:40:30.825Z,100.00
2023-10-07T06:43:00.091Z,100.00
2023-10-07T06:45:36.749Z,100.00
2023-10-07T06:48:08.880Z,100.00
2023-10-07T06:50:36.380Z,100.00
2023-10-07T06:53:04.049Z,100.00
2023-10-07T06:55:37.934Z,100.00
2023-10-07T06:58:05.883Z,100.00
2023-10-07T07:00:48.415Z,100.00
2023-10-07T07:03:19.304Z,100.00
2023-10-07T07:05:46.863Z,100.00
2023-10-07T07:08:14.283Z,100.00
2023-10-07T07:10:41.854Z,100.00
2023-10-07T07:13:16.564Z,100.00
2023-10-07T07:15:43.268Z,100.00
2023-10-07T07:18:16.185Z,100.00
2023-10-07T07:20:51.341Z,100.00
2023-10-07T07:23:18.295Z,100.00
2023-10-07T07:25:50.725Z,100.00
2023-10-07T07:28:18.491Z,100.00
2023-10-07T07:30:46.387Z,100.00
2023-10-07T07:33:13.660Z,100.00
2023-10-07T07:35:42.594Z,100.00
2023-10-07T07:38:33.667Z,100.00
2023-10-07T07:41:11.139Z,100.00
2023-10-07T07:43:39.938Z,100.00
2023-10-07T07:46:19.674Z,100.00
2023-10-07T07:48:46.940Z,100.00
2023-10-07T07:51:18.021Z,100.00
2023-10-07T07:53:45.642Z,100.00
2023-10-07T07:56:18.312Z,100.00
2023-10-07T07:58:48.497Z,100.00
2023-10-07T08:01:19.305Z,100.00
2023-10-07T08:03:46.196Z,100.00
2023-10-07T08:06:13.510Z,100.00
2023-10-07T08:08:40.493Z,100.00
2023-10-07T08:11:08.664Z,100.00
2023-10-07T08:13:35.470Z,100.00
2023-10-07T08:16:06.755Z,100.00
2023-10-07T08:18:33.489Z,100.00
2023-10-07T08:21:15.207Z,100.00
2023-10-07T08:23:42.890Z,100.00
2023-10-07T08:26:10.996Z,100.00
2023-10-07T08:28:42.686Z,100.00
2023-10-07T08:31:20.931Z,100.00
2023-10-07T08:34:05.698Z,100.00
2023-10-07T08:36:32.224Z,100.00
2023-10-07T08:39:00.328Z,100.00
2023-10-07T08:41:28.309Z,100.00
2023-10-07T08:44:05.918Z,100.00
2023-10-07T08:46:40.604Z,100.00
2023-10-07T08:49:15.930Z,100.00
2023-10-07T08:51:44.174Z,100.00
2023-10-07T08:54:18.700Z,100.00
2023-10-07T08:56:56.062Z,100.00
2023-10-07T08:59:24.033Z,100.00
2023-10-07T09:01:58.801Z,100.00
2023-10-07T09:04:26.875Z,100.00
2023-10-07T09:06:53.543Z,100.00
2023-10-07T09:09:38.985Z,100.00
2023-10-07T09:12:16.724Z,100.00
2023-10-07T09:14:53.651Z,100.00
2023-10-07T09:17:22.593Z,100.00
2023-10-07T09:19:50.083Z,100.00
2023-10-07T09:22:19.450Z,100.00
2023-10-07T09:24:46.096Z,100.00
2023-10-07T09:27:14.466Z,100.00
2023-10-07T09:29:45.533Z,100.00
2023-10-07T09:32:23.622Z,99.18
2023-10-07T09:34:56.379Z,99.25
2023-10-07T09:37:24.957Z,99.41
2023-10-07T09:40:17.884Z,98.44
2023-10-07T09:42:58.340Z,98.55
2023-10-07T09:45:35.227Z,98.09
2023-10-07T09:48:06.686Z,97.43
2023-10-07T09:50:35.610Z,97.39
2023-10-07T09:53:19.522Z,96.79
2023-10-07T09:56:01.613Z,96.58
2023-10-07T09:58:42.980Z,96.69
2023-10-07T10:01:38.180Z,95.15
2023-10-07T10:04:14.191Z,95.05
2023-10-07T10:06:52.137Z,94.43
2023-10-07T10:09:25.657Z,93.75
2023-10-07T10:12:14.601Z,93.51
2023-10-07T10:14:58.036Z,93.19
2023-10-07T10:17:40.546Z,92.29
2023-10-07T10:20:13.770Z,92.85
2023-10-07T10:22:51.648Z,93.04
2023-10-07T10:25:37.968Z,91.78
2023-10-07T10:28:07.790Z,92.16
2023-10-07T10:30:46.655Z,91.24
2023-10-07T10:33:21.148Z,88.75
2023-10-07T10:35:53.366Z,85.54
2023-10-07T10:38:20.649Z,86.28
2023-10-07T10:40:48.050Z,86.36
2023-10-07T10:43:25.242Z,84.61
2023-10-07T10:46:06.161Z,84.69
2023-10-07T10:48:35.608Z,83.83
2023-10-07T10:51:08.595Z,82.03
2023-10-07T10:53:42.034Z,82.46
2023-10-07T10:56:09.576Z,82.79
2023-10-07T10:58:38.137Z,83.01
2023-10-07T11:01:06.785Z,82.27
2023-10-07T11:03:35.003Z,83.07
2023-10-07T11:06:07.358Z,83.02
2023-10-07T11:08:34.706Z,83.42
2023-10-07T11:11:01.868Z,83.34
2023-10-07T11:13:30.991Z,83.18
2023-10-07T11:16:06.313Z,82.72
2023-10-07T11:18:34.983Z,82.72
2023-10-07T11:21:03.516Z,82.07
2023-10-07T11:23:30.090Z,81.91
2023-10-07T11:25:57.103Z,82.06
2023-10-07T11:28:23.961Z,82.29
2023-10-07T11:30:52.599Z,82.03
2023-10-07T11:33:20.916Z,81.57
2023-10-07T11:36:01.171Z,80.78
2023-10-07T11:38:27.961Z,80.98
2023-10-07T11:40:54.820Z,80.28
2023-10-07T11:43:21.758Z,80.45
2023-10-07T11:45:49.182Z,80.70
2023-10-07T11:48:15.828Z,80.52
2023-10-07T11:50:42.595Z,80.58
2023-10-07T11:53:09.212Z,80.26
2023-10-07T11:55:36.994Z,80.42
2023-10-07T11:58:05.141Z,79.81
2023-10-07T12:00:35.744Z,80.09
2023-10-07T12:03:08.180Z,80.92
2023-10-07T12:05:39.509Z,80.34
2023-10-07T12:08:06.334Z,80.74
2023-10-07T12:10:36.247Z,80.99
2023-10-07T12:13:04.343Z,80.68
2023-10-07T12:15:31.751Z,80.32
2023-10-07T12:17:58.464Z,80.89
2023-10-07T12:20:25.227Z,80.61
2023-10-07T12:22:51.967Z,79.87
2023-10-07T12:25:19.825Z,79.59
2023-10-07T12:27:48.514Z,79.94
2023-10-07T12:30:22.132Z,79.22
2023-10-07T12:32:49.747Z,80.02
2023-10-07T12:35:16.831Z,80.42
2023-10-07T12:37:48.081Z,80.65
2023-10-07T12:40:15.785Z,80.43
2023-10-07T12:42:42.876Z,79.65
2023-10-07T12:45:11.838Z,80.10
2023-10-07T12:47:42.109Z,80.46
2023-10-07T12:50:24.351Z,79.72
2023-10-07T12:52:52.669Z,80.54
2023-10-07T12:55:19.798Z,80.56
2023-10-07T12:57:46.682Z,80.41
2023-10-07T13:00:21.195Z,79.34
2023-10-07T13:02:49.172Z,100.00
2023-10-07T13:05:19.477Z,100.00
2023-10-07T13:07:48.452Z,100.00
2023-10-07T13:10:15.701Z,100.00
2023-10-07T13:12:42.771Z,100.00
2023-10-07T13:15:16.729Z,100.00
2023-10-07T13:17:46.748Z,100.00
2023-10-07T13:20:21.466Z,100.00
2023-10-07T13:22:49.987Z,100.00
2023-10-07T13:25:18.253Z,100.00
2023-10-07T13:27:45.114Z,100.00
2023-10-07T13:30:13.314Z,100.00
2023-10-07T13:32:41.541Z,100.00
2023-10-07T13:35:10.493Z,100.00
2023-10-07T13:37:40.444Z,100.00
2023-10-07T13:40:08.980Z,100.00
2023-10-07T13:42:36.734Z,100.00
2023-10-07T13:45:09.511Z,100.00
2023-10-07T13:47:37.806Z,100.00
2023-10-07T13:50:12.216Z,100.00
2023-10-07T13:52:47.122Z,100.00
2023-10-07T13:55:23.268Z,100.00
2023-10-07T13:57:57.350Z,100.00
2023-10-07T14:00:37.932Z,100.00
2023-10-07T14:03:07.132Z,100.00
2023-10-07T14:05:42.294Z,100.00
2023-10-07T14:08:17.349Z,100.00
2023-10-07T14:10:45.286Z,100.00
2023-10-07T14:13:13.126Z,100.00
2023-10-07T14:15:40.849Z,100.00
2023-10-07T14:18:07.765Z,100.00
2023-10-07T14:20:34.619Z,100.00
2023-10-07T14:23:01.292Z,100.00
2023-10-07T14:25:28.282Z,100.00
2023-10-07T14:27:54.910Z,100.00
2023-10-07T14:30:23.713Z,100.00
2023-10-07T14:32:51.376Z,100.00
2023-10-07T14:35:18.475Z,100.00
2023-10-07T14:37:46.640Z,100.00
2023-10-07T14:40:19.073Z,100.00
2023-10-07T14:42:47.258Z,100.00
2023-10-07T14:45:13.889Z,100.00
2023-10-07T14:47:40.649Z,100.00
2023-10-07T14:50:07.843Z,100.00
2023-10-07T14:52:35.370Z,100.00
2023-10-07T14:55:07.046Z,100.00
2023-10-07T14:57:34.122Z,100.00
2023-10-07T15:00:00.848Z,100.00
2023-10-07T15:02:28.430Z,100.00
2023-10-07T15:04:55.173Z,100.00
2023-10-07T15:07:21.935Z,100.00
2023-10-07T15:09:49.880Z,100.00
2023-10-07T15:12:17.300Z,100.00
2023-10-07T15:14:44.349Z,100.00
2023-10-07T15:17:10.892Z,100.00
2023-10-07T15:19:37.826Z,100.00
2023-10-07T15:22:07.054Z,100.00
2023-10-07T15:24:35.449Z,100.00
2023-10-07T15:27:02.882Z,100.00
2023-10-07T15:29:31.818Z,100.00
2023-10-07T15:31:59.517Z,100.00
2023-10-07T15:34:26.080Z,100.00
2023-10-07T15:36:57.472Z,100.00
2023-10-07T15:39:25.305Z,100.00
2023-10-07T15:41:53.120Z,100.00
2023-10-07T15:44:20.500Z,100.00
2023-10-07T15:46:47.326Z,100.00
2023-10-07T15:49:14.713Z,100.00
2023-10-07T15:51:45.832Z,100.00
2023-10-07T15:54:16.433Z,100.00
2023-10-07T15:56:43.462Z,100.00
2023-10-07T15:59:11.600Z,100.00
2023-10-07T16:01:41.883Z,100.00
2023-10-07T16:04:09.612Z,100.00
2023-10-07T16:06:37.269Z,100.00
2023-10-07T16:09:13.964Z,100.00
2023-10-07T16:11:41.925Z,100.00
2023-10-07T16:14:09.489Z,100.00
2023-10-07T16:16:37.032Z,100.00
2023-10-07T16:19:05.201Z,100.00
2023-10-07T16:21:32.255Z,100.00
2023-10-07T16:23:58.736Z,100.00
2023-10-07T16:26:25.395Z,100.00
2023-10-07T16:28:52.013Z,100.00
2023-10-07T16:31:19.683Z,100.00
2023-10-07T16:33:46.271Z,100.00
2023-10-07T16:36:13.777Z,100.00
2023-10-07T16:38:42.234Z,100.00
2023-10-07T16:41:12.930Z,100.00
2023-10-07T16:43:39.628Z,100.00
2023-10-07T16:46:06.712Z,100.00
2023-10-07T16:48:35.412Z,100.00
2023-10-07T16:51:05.640Z,100.00
2023-10-07T16:53:35.601Z,100.00
2023-10-07T16:56:04.290Z,100.00
2023-10-07T16:58:32.126Z,100.00
2023-10-07T17:00:59.905Z,100.00
2023-10-07T17:03:28.982Z,100.00
2023-10-07T17:06:01.631Z,100.00
2023-10-07T17:08:30.662Z,100.00
2023-10-07T17:10:58.628Z,100.00
2023-10-07T17:13:25.799Z,100.00
2023-10-07T17:15:54.161Z,100.00
2023-10-07T17:18:27.414Z,100.00
2023-10-07T17:20:59.052Z,100.00
2023-10-07T17:23:29.052Z,100.00
2023-10-07T17:25:56.361Z,100.00
2023-10-07T17:28:23.704Z,100.00
2023-10-07T17:30:51.241Z,100.00
2023-10-07T17:33:21.787Z,100.00
2023-10-07T17:35:49.411Z,100.00
2023-10-07T17:38:16.280Z,100.00
2023-10-07T17:40:42.974Z,100.00
2023-10-07T17:43:12.240Z,99.86
2023-10-07T17:45:40.750Z,99.55
2023-10-07T17:48:08.027Z,99.48
2023-10-07T17:50:35.564Z,99.42
2023-10-07T17:53:04.183Z,98.70
2023-10-07T17:55:32.518Z,99.10
2023-10-07T17:57:59.727Z,98.64
2023-10-07T18:00:31.470Z,98.66
2023-10-07T18:03:00.582Z,98.34
2023-10-07T18:05:28.158Z,97.84
2023-10-07T18:07:55.394Z,98.10
2023-10-07T18:10:23.891Z,97.06
2023-10-07T18:12:52.255Z,97.10
2023-10-07T18:15:19.466Z,96.91
2023-10-07T18:17:47.469Z,96.44
2023-10-07T18:20:14.561Z,96.07
2023-10-07T18:22:43.874Z,95.90
2023-10-07T18:25:11.365Z,95.83
2023-10-07T18:27:38.779Z,95.52
2023-10-07T18:30:07.816Z,95.37
2023-10-07T18:32:35.085Z,95.20
2023-10-07T18:35:05.775Z,94.58
2023-10-07T18:37:33.717Z,94.36
2023-10-07T18:40:02.030Z,93.82
2023-10-07T18:42:36.548Z,94.03
2023-10-07T18:45:05.635Z,93.71
2023-10-07T18:47:34.630Z,94.07
2023-10-07T18:50:01.500Z,94.27
2023-10-07T18:52:29.464Z,93.64
2023-10-07T18:54:56.799Z,93.76
2023-10-07T18:57:23.328Z,93.84
2023-10-07T18:59:49.875Z,93.77
2023-10-07T19:02:16.502Z,93.70
2023-10-07T19:04:43.409Z,93.28
2023-10-07T19:07:10.580Z,93.54
2023-10-07T19:09:38.122Z,93.84
2023-10-07T19:12:06.248Z,93.51
2023-10-07T19:14:34.324Z,94.05
2023-10-07T19:17:01.620Z,93.66
2023-10-07T19:19:28.503Z,93.59
2023-10-07T19:21:55.395Z,93.83
2023-10-07T19:24:24.384Z,93.61
2023-10-07T19:26:51.760Z,93.87
2023-10-07T19:29:18.532Z,93.73
2023-10-07T19:31:45.206Z,93.72
2023-10-07T19:34:11.830Z,93.83
2023-10-07T19:36:38.709Z,93.84
2023-10-07T19:39:05.354Z,93.64
2023-10-07T19:41:31.976Z,93.82
2023-10-07T19:43:58.552Z,93.61
2023-10-07T19:46:25.352Z,93.69
2023-10-07T19:48:51.994Z,93.85
2023-10-07T19:51:18.597Z,93.75
2023-10-07T19:53:45.281Z,93.94
2023-10-07T19:56:12.247Z,94.23
2023-10-07T19:58:40.135Z,94.17
2023-10-07T20:01:08.608Z,94.13
2023-10-07T20:03:36.437Z,93.82
2023-10-07T20:06:08.029Z,93.96
2023-10-07T20:08:34.760Z,93.94
2023-10-07T20:11:01.706Z,94.09
2023-10-07T20:13:28.419Z,94.16
2023-10-07T20:15:55.012Z,94.15
2023-10-07T20:18:21.597Z,93.69
2023-10-07T20:20:59.850Z,93.81
2023-10-07T20:23:26.844Z,93.90
2023-10-07T20:26:01.757Z,94.03
2023-10-07T20:28:28.475Z,94.17
2023-10-07T20:30:56.049Z,93.75
2023-10-07T20:33:22.765Z,94.17
2023-10-07T20:35:49.581Z,94.14
2023-10-07T20:38:16.355Z,94.18
2023-10-07T20:41:01.941Z,94.17
2023-10-07T20:43:30.361Z,94.22
2023-10-07T20:46:04.307Z,94.30
2023-10-07T20:48:33.126Z,94.14
2023-10-07T20:51:02.889Z,94.38
2023-10-07T20:53:30.530Z,94.52
2023-10-07T20:55:57.053Z,94.26
2023-10-07T20:58:24.767Z,94.63
2023-10-07T21:00:51.928Z,94.72
2023-10-07T21:03:18.912Z,94.49
2023-10-07T21:05:45.708Z,94.64
2023-10-07T21:08:13.314Z,94.70
2023-10-07T21:10:42.402Z,94.45
2023-10-07T21:13:08.960Z,94.21
2023-10-07T21:15:36.698Z,94.45
2023-10-07T21:18:05.622Z,94.72
2023-10-07T21:20:35.437Z,94.60
2023-10-07T21:23:03.362Z,94.58
2023-10-07T21:25:37.972Z,94.67
2023-10-07T21:28:05.019Z,94.80
2023-10-07T21:30:31.607Z,94.73
2023-10-07T21:32:58.251Z,95.05
2023-10-07T21:35:26.554Z,94.88
2023-10-07T21:37:55.064Z,94.90
2023-10-07T21:40:21.613Z,95.11
2023-10-07T21:42:48.544Z,95.48
2023-10-07T21:45:15.220Z,95.52
2023-10-07T21:47:41.917Z,95.50
2023-10-07T21:50:09.150Z,96.11
2023-10-07T21:52:35.733Z,95.82
2023-10-07T21:55:02.520Z,95.90
2023-10-07T21:57:29.546Z,96.24
2023-10-07T21:59:57.950Z,96.15
2023-10-07T22:02:27.001Z,96.43
2023-10-07T22:04:55.014Z,96.22
2023-10-07T22:07:22.723Z,96.50
2023-10-07T22:09:49.337Z,96.46
2023-10-07T22:12:17.737Z,96.73
2023-10-07T22:14:45.247Z,96.81
2023-10-07T22:17:13.054Z,96.82
2023-10-07T22:19:40.293Z,96.75
2023-10-07T22:22:06.916Z,96.93
2023-10-07T22:24:33.476Z,97.40
2023-10-07T22:27:00.105Z,97.47
2023-10-07T22:29:26.661Z,97.42
2023-10-07T22:31:56.127Z,97.39
2023-10-07T22:34:23.457Z,97.50
2023-10-07T22:36:56.124Z,97.62
2023-10-07T22:39:32.224Z,98.02
2023-10-07T22:41:59.977Z,97.87
2023-10-07T22:44:27.021Z,98.20
2023-10-07T22:46:57.472Z,98.03
2023-10-07T22:49:27.836Z,98.38
2023-10-07T22:51:55.535Z,98.30
2023-10-07T22:54:33.290Z,98.49
2023-10-07T22:57:00.815Z,98.55
2023-10-07T22:59:27.635Z,98.84
2023-10-07T23:01:57.463Z,98.94
2023-10-07T23:04:28.033Z,98.93
2023-10-07T23:07:04.086Z,98.89
2023-10-07T23:09:38.460Z,99.30
2023-10-07T23:12:16.899Z,99.20
2023-10-07T23:14:46.250Z,99.25
2023-10-07T23:17:13.515Z,99.38
2023-10-07T23:19:41.329Z,99.66
2023-10-07T23:22:14.774Z,99.60
2023-10-07T23:24:42.358Z,99.73
2023-10-07T23:27:13.031Z,99.77
2023-10-07T23:29:50.679Z,99.95
2023-10-07T23:32:24.103Z,100.00
2023-10-07T23:35:00.852Z,100.00
2023-10-07T23:37:27.916Z,100.00
2023-10-07T23:40:00.547Z,100.00
2023-10-07T23:42:27.675Z,100.00
2023-10-07T23:44:55.871Z,100.00
2023-10-07T23:47:24.423Z,100.00
2023-10-07T23:49:55.806Z,100.00
2023-10-07T23:52:24.588Z,100.00
2023-10-07T23:54:58.496Z,100.00
2023-10-07T23:57:31.662Z,100.00
2023-10-07T23:59:59.018Z,100.00
